Falls, Pennsylvania
Current Conditions -  °F | °C
As of 2:54 PM on Monday 24 Nov 2014 (Local Time) from KAVP Reporting Station
Broken Clouds Broken Clouds  
Wind Chill: 69°   Ceiling: 4100
Heat Index: 69°   Visibility: 10mi
Dew Point: 52°   Wind: 22mph
Humidity: 54%   Direction: 200°SSW
Pressure: 29.5"   Gusts: 37mph
Location:  41.46°N, 75.85°W
Report Text: KAVP 241954Z 20019G32KT 10SM BKN041 21/11 A2950 RMK AO2 PK WND 21036/1934 SLP983 T02060111
Loading
Personal Weather Stations






























Interactive Weather Map New forecast layout! Learn more

10-Day Weather Forecast

Advertisements
Track Severe Weather on mobile